• Join FlightAware (Why Join?)
  • Login
  • US Flag 
02:50PM EDT


 

Airport Tracker/Info


-or-


 

Live Flight TrackerFlight Track Log ✈ KCE2 ✈ 17-May-2013 ✈ KPSM - CYSJ

Flight Track Log - Related Links

Times and Time Zones

All times are in EDT time to prevent confusion due to time zone crossing. See the KCE2 flight status page for this flight to view local times or setup timezone preferences in your user account.

Time Position Orientation Groundspeed Altitude Reporting Facility
EDT Latitude Longitude Course Direction KTS MPH feet Rate Location/Type
01:51PM 43.1230 -70.8310 354° North 224 258 3,200  Level FlightAware
01:51PM 43.1530 -70.8350 354° North 245 282 3,900 3,300 Climbing FlightAware
01:52PM 43.1890 -70.8200 17° North 285 328 6,500 5,100 Climbing FlightAware
01:52PM 43.2150 -70.7870 43° Northeast 306 352 8,600 5,400 Climbing FlightAware
01:52PM 43.2200 -70.7760 58° Northeast 317 365 9,200 5,340 Climbing FlightAware
01:53PM 43.2620 -70.6860 57° Northeast 348 400 13,500 4,680 Climbing FlightAware
01:54PM 43.2990 -70.6070 57° Northeast 375 432 16,300 4,380 Climbing FlightAware
01:54PM 43.3370 -70.5260 57° Northeast 382 440 19,400 4,020 Climbing FlightAware
01:55PM 43.3790 -70.4340 58° Northeast 397 457 22,000 3,120 Climbing FlightAware
01:56PM 43.4200 -70.3450 58° Northeast 421 484 23,900 2,940 Climbing FlightAware
01:56PM 43.4680 -70.2400 58° Northeast 434 499 26,200 2,820 Climbing FlightAware
01:57PM 43.5160 -70.1360 58° Northeast 449 517 28,200 2,520 Climbing FlightAware
01:58PM 43.5610 -70.0380 58° Northeast 463 533 29,800 2,400 Climbing FlightAware
01:58PM 43.6030 -69.9460 58° Northeast 471 542 31,200 2,280 Climbing FlightAware
01:59PM 43.6580 -69.8240 58° Northeast 473 544 33,100 2,280 Climbing FlightAware
02:00PM 43.7060 -69.7160 58° Northeast 475 547 34,700 2,040 Climbing FlightAware
02:01PM 43.7570 -69.6030 58° Northeast 483 556 36,000 1,500 Climbing FlightAware
02:01PM 43.8060 -69.4940 58° Northeast 494 568 36,900 720 Climbing FlightAware
02:02PM 43.8530 -69.3870 59° Northeast 511 588 37,000 60 Climbing FlightAware
02:03PM 43.9100 -69.2590 58° Northeast 507 583 37,000  Level FlightAware
02:04PM 43.9680 -69.1290 58° Northeast 499 574 37,000  Level FlightAware
02:04PM 44.0100 -69.0360 58° Northeast 499 574 37,000  Level FlightAware
02:05PM 44.0620 -68.9200 58° Northeast 499 574 37,000  Level FlightAware
02:06PM 44.1160 -68.7900 60° Northeast 506 582 37,000  Level FlightAware
02:06PM 44.1600 -68.6890 59° Northeast 506 582 37,000 -180 Level FlightAware
02:07PM 44.2280 -68.5330 59° Northeast 512 589 36,800 -840 Descending FlightAware
02:08PM 44.2750 -68.4230 59° Northeast 506 582 35,800 -1,800 Descending FlightAware
02:08PM 44.3240 -68.3080 59° Northeast 505 581 34,400 -2,040 Descending FlightAware
02:09PM 44.3700 -68.2010 59° Northeast 499 574 33,100 -2,280 Descending FlightAware
02:10PM 44.4240 -68.0730 59° Northeast 495 570 31,200 -2,520 Descending FlightAware
02:11PM 44.4770 -67.9500 59° Northeast 484 557 29,400 -2,400 Descending FlightAware
02:11PM 44.5220 -67.8430 59° Northeast 471 542 27,800 -2,340 Descending FlightAware
02:12PM 44.5700 -67.7270 60° Northeast 459 528 26,100 -2,220 Descending FlightAware
02:13PM 44.6120 -67.6280 59° Northeast 449 517 24,700 -2,160 Descending FlightAware
02:13PM 44.6540 -67.5090 64° Northeast 440 506 23,100 -2,160 Descending FlightAware
02:14PM 44.6890 -67.4080 64° Northeast 438 504 21,700 -2,100 Descending FlightAware
02:15PM 44.7250 -67.3050 64° Northeast 436 502 20,300 -2,160 Descending FlightAware
02:16PM 44.7650 -67.1900 64° Northeast 427 491 18,700 -2,100 Descending FlightAware
02:16PM 44.7940 -67.1050 64° Northeast 416 479 17,500 -2,100 Descending FlightAware
02:17PM 44.8430 -66.9630 64° Northeast 391 450 15,400 -2,100 Descending FlightAware
02:18PM 44.8770 -66.8640 64° Northeast 381 438 13,900 -2,100 Descending FlightAware
02:19PM 44.9070 -66.7740 65° Northeast 366 421 12,500 -2,040 Descending FlightAware
02:19PM 44.9360 -66.6880 65° Northeast 356 410 11,200 -1,920 Descending FlightAware
02:20PM 44.9680 -66.5950 64° Northeast 345 397 9,800 -1,740 Descending FlightAware
02:20PM 44.9840 -66.5460 65° Northeast 328 377 9,200 -1,380 Descending FlightAware
02:21PM 44.9940 -66.5160 65° Northeast 320 368 8,900 -1,380 Descending FlightAware
02:21PM 45.0130 -66.4600 64° Northeast 312 359 8,200 -1,560 Descending FlightAware
02:22PM 45.0280 -66.4160 64° Northeast 306 352 7,500 -1,680 Descending FlightAware
02:22PM 45.0370 -66.3890 65° Northeast 303 349 7,100 -1,620 Descending FlightAware
02:22PM 45.0550 -66.3340 65° Northeast 291 335 6,300 -1,560 Descending FlightAware
02:23PM 45.0690 -66.2910 65° Northeast 287 330 5,700 -1,500 Descending FlightAware
02:23PM 45.0780 -66.2650 64° Northeast 284 327 5,300 -1,560 Descending FlightAware
02:24PM 45.1090 -66.1720 65° Northeast 276 318 3,900 -1,080 Descending FlightAware
02:24PM 45.1230 -66.1320 64° Northeast 276 318 3,800 -1,440 Descending FlightAware
02:25PM 45.1333 -66.0833 64° Northeast 270 311 2,600 -1,380 Descending Moncton Center
02:26PM 45.1667 -65.9833 65° Northeast 260 299 1,900 -300 Descending Moncton Center
02:27PM 45.2167 -65.9667 13° North 210 242 2,000 -300 Climbing Moncton Center
02:28PM 45.2500 -65.9167 47° Northeast 140 161 1,400 -660 Descending Moncton Center
02:29PM 45.2667 -65.9000 35° Northeast 120 138 700 -360 Descending Moncton Center
02:30PM 45.3000 -65.8667 35° Northeast 120 138 700  Level Moncton Center